Time;durP1;ratioP1;P1;durP2;ratioP2;P2;SDS_P1;SDS_P2;PMS_P1;PMS_P2;Temp;Humidity;BMP_temperature;BMP_pressure;BME280_temperature;BME280_humidity;BME280_pressure;Samples;Min_cycle;Max_cycle;Signal;HPM_P1;HPM_P2
2023/01/18 00:01:55;;;;;;;;;18.00;18.00;;;;;;;;5295602;27;8786;-76
2023/01/18 00:04:44;;;;;;;;;20.60;19.40;;;;;;;;5312930;27;9475;-76
2023/01/18 00:07:15;;;;;;;;;18.80;18.80;;;;;;;;5312764;27;8772;-74
2023/01/18 00:10:06;;;;;;;;;19.80;19.80;;;;;;;;5297622;27;8756;-74
2023/01/18 00:12:37;;;;;;;;;18.80;18.80;;;;;;;;5295528;27;8898;-74
2023/01/18 00:15:08;;;;;;;;;21.60;21.40;;;;;;;;5314821;27;8803;-74
2023/01/18 00:17:51;;;;;;;;;24.60;24.00;;;;;;;;5319868;27;8776;-74
2023/01/18 00:20:23;;;;;;;;;21.80;21.80;;;;;;;;5302832;27;8890;-74
2023/01/18 00:22:55;;;;;;;;;27.00;26.60;;;;;;;;5333405;27;9315;-73
2023/01/18 00:25:26;;;;;;;;;30.00;30.00;;;;;;;;5312449;27;8796;-73
2023/01/18 00:27:57;;;;;;;;;26.00;25.40;;;;;;;;5296033;27;8796;-75
2023/01/18 00:30:28;;;;;;;;;32.40;32.20;;;;;;;;5278428;27;8787;-73
2023/01/18 00:32:59;;;;;;;;;31.00;31.00;;;;;;;;5295211;27;8752;-73
2023/01/18 00:35:30;;;;;;;;;37.25;36.75;;;;;;;;5312206;27;8800;-75
2023/01/18 00:38:02;;;;;;;;;33.80;33.20;;;;;;;;5312211;27;10771;-72
2023/01/18 00:40:32;;;;;;;;;30.60;30.60;;;;;;;;5312236;27;8764;-72
2023/01/18 00:45:53;;;;;;;;;32.20;30.20;;;;;;;;5295131;27;8864;-72
2023/01/18 00:48:24;;;;;;;;;25.00;24.80;;;;;;;;5294876;27;9519;-72
2023/01/18 00:50:55;;;;;;;;;24.50;24.50;;;;;;;;5278089;27;8764;-72
2023/01/18 00:53:26;;;;;;;;;21.75;21.75;;;;;;;;5312383;27;11420;-73
2023/01/18 00:55:57;;;;;;;;;25.20;25.20;;;;;;;;5278948;27;10122;-72
2023/01/18 00:58:29;;;;;;;;;20.20;20.20;;;;;;;;5312120;27;8773;-72
2023/01/18 01:01:00;;;;;;;;;16.00;14.80;;;;;;;;5312756;27;8768;-73
2023/01/18 01:06:42;;;;;;;;;19.80;19.80;;;;;;;;5277826;27;8768;-72
2023/01/18 01:06:43;;;;;;;;;25.00;24.00;;;;;;;;5295092;27;8860;-71
2023/01/18 01:09:14;;;;;;;;;21.00;21.00;;;;;;;;5294831;27;8764;-71
2023/01/18 01:26:12;;;;;;;;;23.20;23.20;;;;;;;;5334012;27;8760;-72
2023/01/18 01:28:44;;;;;;;;;19.80;19.40;;;;;;;;5298767;27;8795;-72
2023/01/18 01:31:15;;;;;;;;;20.20;20.20;;;;;;;;5281204;27;8768;-72
2023/01/18 01:33:49;;;;;;;;;30.80;30.40;;;;;;;;5298815;27;8771;-72
2023/01/18 01:36:24;;;;;;;;;24.20;23.60;;;;;;;;5298941;27;8820;-73
2023/01/18 01:38:55;;;;;;;;;21.60;21.60;;;;;;;;5298458;27;8867;-73
2023/01/18 01:41:28;;;;;;;;;17.20;16.40;;;;;;;;5333714;27;8883;-72
2023/01/18 01:44:03;;;;;;;;;19.60;18.20;;;;;;;;5315415;27;8776;-71
2023/01/18 01:46:39;;;;;;;;;26.40;25.40;;;;;;;;5333956;27;8807;-72
2023/01/18 01:49:18;;;;;;;;;16.60;16.00;;;;;;;;5298473;27;9524;-71
2023/01/18 01:52:09;;;;;;;;;30.40;28.60;;;;;;;;5315585;27;8790;-72
2023/01/18 01:54:52;;;;;;;;;28.80;27.40;;;;;;;;5314464;27;8768;-72
2023/01/18 01:57:26;;;;;;;;;24.80;24.40;;;;;;;;5281669;27;8796;-72
2023/01/18 02:00:02;;;;;;;;;12.60;12.00;;;;;;;;5314937;27;8860;-71
2023/01/18 02:02:44;;;;;;;;;24.80;24.80;;;;;;;;5316884;27;8780;-70
2023/01/18 02:05:17;;;;;;;;;24.00;24.00;;;;;;;;5297907;27;9470;-70
2023/01/18 02:07:48;;;;;;;;;19.80;19.20;;;;;;;;5297949;27;8769;-71
2023/01/18 02:10:19;;;;;;;;;16.20;16.20;;;;;;;;5297746;27;8863;-71
2023/01/18 02:12:50;;;;;;;;;13.80;13.80;;;;;;;;5280478;27;8773;-72
2023/01/18 02:15:26;;;;;;;;;21.20;19.40;;;;;;;;5315257;27;8796;-72
2023/01/18 02:18:01;;;;;;;;;22.20;22.20;;;;;;;;5315332;27;8761;-72
2023/01/18 02:20:48;;;;;;;;;16.40;16.40;;;;;;;;5280724;27;8776;-73
2023/01/18 02:23:39;;;;;;;;;44.60;42.20;;;;;;;;5332997;27;8777;-73
2023/01/18 02:26:28;;;;;;;;;33.60;32.60;;;;;;;;5315129;27;8756;-73
2023/01/18 02:29:20;;;;;;;;;46.20;45.00;;;;;;;;5314994;27;8776;-73
2023/01/18 02:32:10;;;;;;;;;61.00;46.60;;;;;;;;5299963;27;8923;-73
2023/01/18 02:34:47;;;;;;;;;37.80;36.60;;;;;;;;5332176;27;8882;-73
2023/01/18 02:37:27;;;;;;;;;34.40;34.00;;;;;;;;5298001;27;8791;-72
2023/01/18 02:40:10;;;;;;;;;42.60;39.20;;;;;;;;5297333;27;8748;-72
2023/01/18 02:48:31;;;;;;;;;37.00;36.60;;;;;;;;5313926;27;8795;-70
2023/01/18 02:51:04;;;;;;;;;37.80;30.80;;;;;;;;5297321;27;9547;-71
2023/01/18 02:53:43;;;;;;;;;29.40;29.20;;;;;;;;5296648;27;8787;-71
2023/01/18 02:56:23;;;;;;;;;37.40;35.20;;;;;;;;5297152;27;8853;-70
2023/01/18 02:59:15;;;;;;;;;29.60;29.20;;;;;;;;5316565;27;8760;-72
2023/01/18 03:01:54;;;;;;;;;35.60;34.60;;;;;;;;5296932;27;9462;-72
2023/01/18 03:04:53;;;;;;;;;46.00;40.60;;;;;;;;5313636;27;8944;-72
2023/01/18 03:07:47;;;;;;;;;34.60;33.40;;;;;;;;5299276;27;9525;-72
2023/01/18 03:10:19;;;;;;;;;63.20;54.80;;;;;;;;5296452;27;9551;-72
2023/01/18 03:12:56;;;;;;;;;63.60;49.60;;;;;;;;5313338;27;8832;-72
2023/01/18 03:15:35;;;;;;;;;38.60;37.80;;;;;;;;5313108;27;8800;-71
2023/01/18 03:18:09;;;;;;;;;36.20;33.40;;;;;;;;5314103;27;8757;-71
2023/01/18 03:20:42;;;;;;;;;25.40;23.20;;;;;;;;5331628;27;8756;-72
2023/01/18 03:23:41;;;;;;;;;29.20;28.40;;;;;;;;5313664;27;8796;-72
2023/01/18 03:26:15;;;;;;;;;28.00;26.40;;;;;;;;5295159;27;9516;-72
2023/01/18 03:34:44;;;;;;;;;23.00;23.00;;;;;;;;5313143;27;8827;-71
2023/01/18 03:37:18;;;;;;;;;27.80;26.60;;;;;;;;5295903;27;8781;-72
2023/01/18 03:40:11;;;;;;;;;24.80;24.80;;;;;;;;5298829;27;8860;-74
2023/01/18 03:43:03;;;;;;;;;21.00;20.80;;;;;;;;5316186;27;8772;-72
2023/01/18 03:45:40;;;;;;;;;25.60;25.60;;;;;;;;5312397;27;8795;-73
2023/01/18 03:48:12;;;;;;;;;21.80;21.20;;;;;;;;5312799;27;8796;-73
2023/01/18 03:50:59;;;;;;;;;32.40;30.00;;;;;;;;5279344;27;8828;-73
2023/01/18 03:53:39;;;;;;;;;32.80;32.20;;;;;;;;5313080;27;8772;-73
2023/01/18 03:56:10;;;;;;;;;19.80;19.80;;;;;;;;5295679;27;8783;-73
2023/01/18 03:58:42;;;;;;;;;26.75;26.75;;;;;;;;5295518;27;9471;-71
2023/01/18 04:01:32;;;;;;;;;36.80;36.80;;;;;;;;5331397;27;10769;-74
2023/01/18 04:04:03;;;;;;;;;31.80;31.80;;;;;;;;5296160;27;8832;-74
2023/01/18 04:06:35;;;;;;;;;23.00;22.40;;;;;;;;5295952;27;8784;-75
2023/01/18 04:09:07;;;;;;;;;36.00;36.00;;;;;;;;5295454;27;8757;-74
2023/01/18 04:11:38;;;;;;;;;41.40;35.60;;;;;;;;5295397;27;8767;-72
2023/01/18 04:14:09;;;;;;;;;31.20;30.80;;;;;;;;5295618;27;8836;-73
2023/01/18 04:16:40;;;;;;;;;30.20;30.20;;;;;;;;5295674;27;8804;-73
2023/01/18 04:19:11;;;;;;;;;37.00;36.60;;;;;;;;5331264;27;8904;-73
2023/01/18 04:21:43;;;;;;;;;42.60;42.20;;;;;;;;5330802;27;8757;-73
2023/01/18 04:24:16;;;;;;;;;23.80;22.60;;;;;;;;5330730;27;8791;-73
2023/01/18 04:26:47;;;;;;;;;25.20;24.60;;;;;;;;5330819;27;8786;-73
2023/01/18 04:29:18;;;;;;;;;28.60;27.00;;;;;;;;5330608;27;8826;-73
2023/01/18 04:31:50;;;;;;;;;35.20;33.60;;;;;;;;5278460;27;9588;-73
2023/01/18 04:34:23;;;;;;;;;31.20;29.60;;;;;;;;5295105;27;8776;-70
2023/01/18 04:36:55;;;;;;;;;28.20;27.00;;;;;;;;5294479;27;8811;-73
2023/01/18 04:39:26;;;;;;;;;30.20;30.20;;;;;;;;5279218;27;8783;-71
2023/01/18 04:41:57;;;;;;;;;23.00;22.80;;;;;;;;5295366;27;8899;-71
2023/01/18 04:44:47;;;;;;;;;17.20;16.00;;;;;;;;5298262;27;8764;-71
2023/01/18 04:47:18;;;;;;;;;32.00;32.00;;;;;;;;5294869;27;8799;-72
2023/01/18 04:49:50;;;;;;;;;25.80;25.40;;;;;;;;5278904;27;8783;-71
2023/01/18 04:52:21;;;;;;;;;26.20;26.20;;;;;;;;5295289;27;8798;-71
2023/01/18 04:54:52;;;;;;;;;27.20;26.60;;;;;;;;5311947;27;8784;-70
2023/01/18 04:57:24;;;;;;;;;36.40;27.20;;;;;;;;5314157;27;8764;-67
2023/01/18 04:59:55;;;;;;;;;62.80;50.40;;;;;;;;5316545;27;8767;-70
2023/01/18 05:02:27;;;;;;;;;51.80;47.60;;;;;;;;5281704;27;8765;-68
2023/01/18 05:04:58;;;;;;;;;28.20;27.40;;;;;;;;5299345;27;8756;-68
2023/01/18 05:07:32;;;;;;;;;25.40;22.00;;;;;;;;5299402;27;8764;-68
2023/01/18 05:10:04;;;;;;;;;26.00;24.40;;;;;;;;5315791;27;8766;-68
2023/01/18 05:12:36;;;;;;;;;21.60;21.60;;;;;;;;5298710;27;8898;-68
2023/01/18 05:15:08;;;;;;;;;37.00;36.40;;;;;;;;5315434;27;8807;-68
2023/01/18 05:22:03;;;;;;;;;21.80;21.80;;;;;;;;5334136;27;8688;-68
2023/01/18 05:24:35;;;;;;;;;21.00;20.80;;;;;;;;5298839;27;8788;-68
2023/01/18 05:27:06;;;;;;;;;20.20;18.60;;;;;;;;5298423;27;8796;-68
2023/01/18 05:29:37;;;;;;;;;15.20;15.20;;;;;;;;5281714;27;9566;-68
2023/01/18 05:32:10;;;;;;;;;36.00;34.00;;;;;;;;5298442;27;8768;-69
2023/01/18 05:34:41;;;;;;;;;21.80;19.40;;;;;;;;5317553;27;8774;-69
2023/01/18 05:37:12;;;;;;;;;13.50;13.50;;;;;;;;5304518;27;8789;-68
2023/01/18 05:39:43;;;;;;;;;19.00;19.00;;;;;;;;5322705;27;11318;-68
2023/01/18 05:42:14;;;;;;;;;15.80;15.00;;;;;;;;5302980;27;8789;-68
2023/01/18 05:44:45;;;;;;;;;12.80;12.40;;;;;;;;5316241;27;8911;-68
2023/01/18 05:47:16;;;;;;;;;18.00;15.80;;;;;;;;5298140;27;8772;-68
2023/01/18 05:49:47;;;;;;;;;12.75;12.75;;;;;;;;5323614;27;8795;-68
2023/01/18 05:52:18;;;;;;;;;20.40;20.40;;;;;;;;5284820;28;8823;-67
2023/01/18 05:55:08;;;;;;;;;23.60;22.40;;;;;;;;5291094;28;8830;-67
2023/01/18 05:57:39;;;;;;;;;4.60;4.60;;;;;;;;5291236;28;8760;-68
2023/01/18 06:00:11;;;;;;;;;27.00;25.00;;;;;;;;5255566;28;9522;-68
2023/01/18 06:02:43;;;;;;;;;19.60;19.60;;;;;;;;5256055;28;9491;-68
2023/01/18 06:05:14;;;;;;;;;19.60;18.60;;;;;;;;5256323;28;9514;-69
2023/01/18 06:07:46;;;;;;;;;75.80;57.80;;;;;;;;5271288;28;8800;-68
2023/01/18 06:14:40;;;;;;;;;9.80;9.40;;;;;;;;5290281;28;8760;-68
2023/01/18 06:17:11;;;;;;;;;28.00;27.40;;;;;;;;5272202;28;8785;-67
2023/01/18 06:19:42;;;;;;;;;23.50;23.50;;;;;;;;5255396;28;8784;-68
2023/01/18 06:22:14;;;;;;;;;22.00;22.00;;;;;;;;5290563;28;8791;-68
2023/01/18 06:24:45;;;;;;;;;27.60;27.20;;;;;;;;5272011;28;11103;-68
2023/01/18 06:27:16;;;;;;;;;19.80;19.00;;;;;;;;5254912;28;8808;-67
2023/01/18 06:29:47;;;;;;;;;16.00;16.00;;;;;;;;5255087;28;8769;-69
2023/01/18 06:36:42;;;;;;;;;17.60;17.60;;;;;;;;5289711;28;10690;-68
2023/01/18 06:39:13;;;;;;;;;16.00;16.00;;;;;;;;5272177;28;8772;-68
2023/01/18 06:42:02;;;;;;;;;4.00;4.00;;;;;;;;5271682;28;8788;-67
2023/01/18 06:44:33;;;;;;;;;14.80;14.80;;;;;;;;5255133;28;9495;-67
2023/01/18 06:47:23;;;;;;;;;9.40;9.40;;;;;;;;5275835;27;8778;-68
2023/01/18 06:49:55;;;;;;;;;15.80;14.80;;;;;;;;5275605;27;8806;-69
2023/01/18 06:52:26;;;;;;;;;8.60;6.80;;;;;;;;5276155;27;9478;-68
2023/01/18 06:55:17;;;;;;;;;1.80;1.80;;;;;;;;5311608;27;8818;-68
2023/01/18 06:57:48;;;;;;;;;7.00;7.00;;;;;;;;5276127;27;8778;-67
2023/01/18 07:00:38;;;;;;;;;9.00;9.00;;;;;;;;5278358;27;8770;-68
2023/01/18 07:03:31;;;;;;;;;9.00;9.00;;;;;;;;5292196;27;8782;-67
2023/01/18 07:06:02;;;;;;;;;12.40;12.40;;;;;;;;5275339;27;8917;-69
2023/01/18 07:08:34;;;;;;;;;14.20;14.20;;;;;;;;5292528;27;8790;-69
2023/01/18 07:11:06;;;;;;;;;10.40;10.00;;;;;;;;5292847;27;8786;-68
2023/01/18 07:13:39;;;;;;;;;15.40;15.00;;;;;;;;5275645;27;8790;-68
2023/01/18 07:16:17;;;;;;;;;16.40;15.40;;;;;;;;5310371;27;9501;-68
2023/01/18 07:18:49;;;;;;;;;19.60;19.60;;;;;;;;5310591;27;8755;-68
2023/01/18 07:21:28;;;;;;;;;16.40;16.00;;;;;;;;5291690;27;8797;-68
2023/01/18 07:24:17;;;;;;;;;10.80;10.80;;;;;;;;5311020;27;8774;-67
2023/01/18 07:26:48;;;;;;;;;10.40;10.00;;;;;;;;5292133;27;8778;-68
2023/01/18 07:29:20;;;;;;;;;15.40;15.40;;;;;;;;5292326;27;8793;-67
2023/01/18 07:31:50;;;;;;;;;15.20;15.20;;;;;;;;5292619;27;8746;-67
2023/01/18 07:34:22;;;;;;;;;15.75;15.75;;;;;;;;5310956;27;8778;-66
2023/01/18 07:36:53;;;;;;;;;20.20;18.00;;;;;;;;5309914;27;11607;-69
2023/01/18 07:39:24;;;;;;;;;18.80;17.40;;;;;;;;5310112;27;8832;-69
2023/01/18 07:41:55;;;;;;;;;24.40;23.60;;;;;;;;5309183;27;8835;-69
2023/01/18 07:44:28;;;;;;;;;33.20;32.60;;;;;;;;5274799;27;8850;-69
2023/01/18 07:46:59;;;;;;;;;82.80;59.60;;;;;;;;5257492;27;8904;-69
2023/01/18 07:49:31;;;;;;;;;34.40;34.00;;;;;;;;5291498;27;8770;-69
2023/01/18 07:52:02;;;;;;;;;27.60;25.80;;;;;;;;5309313;27;8913;-68
2023/01/18 07:54:51;;;;;;;;;28.00;26.00;;;;;;;;5310156;27;8909;-69
2023/01/18 07:57:22;;;;;;;;;21.80;20.80;;;;;;;;5274891;27;8780;-68
2023/01/18 07:59:53;;;;;;;;;19.00;18.60;;;;;;;;5274526;27;8793;-68
2023/01/18 08:02:24;;;;;;;;;24.50;24.00;;;;;;;;5291622;27;8785;-69
2023/01/18 08:04:55;;;;;;;;;21.80;20.40;;;;;;;;5274842;27;8798;-68
2023/01/18 08:07:27;;;;;;;;;20.50;20.50;;;;;;;;5291755;27;8784;-69
2023/01/18 08:10:17;;;;;;;;;12.40;12.40;;;;;;;;5309549;27;11467;-68
2023/01/18 08:12:49;;;;;;;;;16.75;16.75;;;;;;;;5308844;27;8767;-68
2023/01/18 08:15:20;;;;;;;;;26.20;25.80;;;;;;;;5308602;27;10412;-68
2023/01/18 08:17:54;;;;;;;;;19.00;19.00;;;;;;;;5257511;27;8843;-67
2023/01/18 08:20:44;;;;;;;;;18.60;17.00;;;;;;;;5308873;27;9377;-68
2023/01/18 08:23:15;;;;;;;;;13.20;13.20;;;;;;;;5308265;27;8851;-68
2023/01/18 08:25:46;;;;;;;;;16.00;15.80;;;;;;;;5257512;27;8774;-68
2023/01/18 08:28:17;;;;;;;;;19.60;19.60;;;;;;;;5257496;27;8815;-68
2023/01/18 08:30:48;;;;;;;;;178.50;126.50;;;;;;;;5290840;27;8797;-70
2023/01/18 08:33:19;;;;;;;;;20.00;18.20;;;;;;;;5295581;27;9823;-66
2023/01/18 08:35:50;;;;;;;;;15.50;15.50;;;;;;;;5278989;27;8801;-68
2023/01/18 08:38:22;;;;;;;;;29.60;28.00;;;;;;;;5295917;27;8774;-68
2023/01/18 08:40:53;;;;;;;;;23.00;23.00;;;;;;;;5312446;27;8782;-68
2023/01/18 08:43:24;;;;;;;;;28.00;26.50;;;;;;;;5278478;27;9472;-64
2023/01/18 08:45:55;;;;;;;;;20.00;18.50;;;;;;;;5277744;27;11423;-65
2023/01/18 08:48:47;;;;;;;;;18.60;18.40;;;;;;;;5294755;27;11502;-68
2023/01/18 08:51:37;;;;;;;;;15.20;13.80;;;;;;;;5313574;27;9417;-70
2023/01/18 08:54:08;;;;;;;;;9.20;8.80;;;;;;;;5260904;27;8770;-70
2023/01/18 08:56:38;;;;;;;;;12.00;12.00;;;;;;;;5313634;27;9504;-70
2023/01/18 08:59:09;;;;;;;;;24.75;23.50;;;;;;;;5313047;27;9731;-70
2023/01/18 09:01:40;;;;;;;;;24.00;22.75;;;;;;;;5295392;27;11510;-70
2023/01/18 09:04:12;;;;;;;;;14.50;14.50;;;;;;;;5261400;27;11465;-71
2023/01/18 09:06:43;;;;;;;;;24.20;23.80;;;;;;;;5278173;27;8774;-68
2023/01/18 09:09:14;;;;;;;;;29.60;28.60;;;;;;;;5278304;27;8916;-69
2023/01/18 09:11:45;;;;;;;;;33.50;27.00;;;;;;;;5277766;27;8782;-69
2023/01/18 09:14:16;;;;;;;;;35.80;31.60;;;;;;;;5294814;27;8851;-69
2023/01/18 09:16:47;;;;;;;;;36.00;34.20;;;;;;;;5313362;27;8798;-69
2023/01/18 09:19:36;;;;;;;;;26.40;25.60;;;;;;;;5297495;27;8778;-69
2023/01/18 09:22:07;;;;;;;;;31.40;27.20;;;;;;;;5277491;27;8775;-70
2023/01/18 09:24:40;;;;;;;;;37.50;36.50;;;;;;;;5294399;27;9514;-68
2023/01/18 09:27:12;;;;;;;;;33.60;33.60;;;;;;;;5294255;27;8786;-69
2023/01/18 09:30:02;;;;;;;;;44.80;41.40;;;;;;;;5311589;27;8762;-68
2023/01/18 09:32:34;;;;;;;;;37.40;35.60;;;;;;;;5277989;27;8778;-68
2023/01/18 09:35:05;;;;;;;;;29.25;29.00;;;;;;;;5277297;27;8794;-69
2023/01/18 09:37:36;;;;;;;;;10.20;8.60;;;;;;;;5311013;27;8773;-69
2023/01/18 09:40:13;;;;;;;;;46.40;43.00;;;;;;;;5260325;27;8774;-68
2023/01/18 09:42:45;;;;;;;;;49.20;45.80;;;;;;;;5294340;27;8770;-67
2023/01/18 09:45:31;;;;;;;;;35.40;34.80;;;;;;;;5276870;27;8782;-68
2023/01/18 09:48:06;;;;;;;;;40.20;39.60;;;;;;;;5293595;27;8926;-68
2023/01/18 09:50:43;;;;;;;;;20.20;19.60;;;;;;;;5294941;27;9503;-68
2023/01/18 09:53:15;;;;;;;;;37.60;33.20;;;;;;;;5277170;27;8835;-68
2023/01/18 09:55:52;;;;;;;;;34.00;33.80;;;;;;;;5276877;27;8796;-68
2023/01/18 09:58:27;;;;;;;;;30.40;29.40;;;;;;;;5311862;27;8785;-69
2023/01/18 10:01:01;;;;;;;;;21.80;16.80;;;;;;;;5276654;27;8777;-69
2023/01/18 10:03:40;;;;;;;;;26.80;26.20;;;;;;;;5310697;27;8754;-68
2023/01/18 10:06:18;;;;;;;;;21.60;21.20;;;;;;;;5293508;27;8908;-69
2023/01/18 10:09:04;;;;;;;;;26.60;25.40;;;;;;;;5293557;27;8777;-68
2023/01/18 10:11:43;;;;;;;;;21.60;19.00;;;;;;;;5293499;27;8762;-70
2023/01/18 10:14:21;;;;;;;;;33.00;29.00;;;;;;;;5276621;27;8766;-69
2023/01/18 10:21:50;;;;;;;;;20.40;20.20;;;;;;;;5311541;27;8698;-69
2023/01/18 10:24:43;;;;;;;;;30.00;25.80;;;;;;;;5310472;27;8754;-68
2023/01/18 10:27:17;;;;;;;;;24.80;23.60;;;;;;;;5311588;27;8817;-69
2023/01/18 10:30:01;;;;;;;;;40.80;38.80;;;;;;;;5276397;27;8758;-69
2023/01/18 10:37:05;;;;;;;;;33.20;30.40;;;;;;;;5311432;27;8932;-69
2023/01/18 10:39:42;;;;;;;;;20.00;19.80;;;;;;;;5292860;27;8851;-69
2023/01/18 10:42:20;;;;;;;;;30.40;30.00;;;;;;;;5276156;27;8788;-67
2023/01/18 10:45:20;;;;;;;;;31.80;26.80;;;;;;;;5295983;27;8762;-68
2023/01/18 10:47:52;;;;;;;;;25.20;24.60;;;;;;;;5309915;27;8809;-68
2023/01/18 10:50:33;;;;;;;;;29.20;26.60;;;;;;;;5292717;27;8826;-69
2023/01/18 10:53:23;;;;;;;;;26.60;25.20;;;;;;;;5311202;27;8765;-70
2023/01/18 10:55:58;;;;;;;;;14.40;14.40;;;;;;;;5275466;27;8817;-67
2023/01/18 10:58:39;;;;;;;;;17.80;17.80;;;;;;;;5275628;27;8790;-67
2023/01/18 11:01:16;;;;;;;;;26.20;23.40;;;;;;;;5292943;27;8766;-70
2023/01/18 11:03:55;;;;;;;;;17.60;17.60;;;;;;;;5292636;27;8770;-68
2023/01/18 11:06:26;;;;;;;;;68.20;58.40;;;;;;;;5292575;27;8806;-70
2023/01/18 11:08:57;;;;;;;;;31.80;30.40;;;;;;;;5275479;27;8778;-69
2023/01/18 11:14:38;;;;;;;;;27.80;23.20;;;;;;;;5292349;27;8762;-69
2023/01/18 11:17:10;;;;;;;;;24.60;23.00;;;;;;;;5310907;27;8878;-68
2023/01/18 11:19:41;;;;;;;;;37.80;27.80;;;;;;;;5308908;27;8785;-69
2023/01/18 11:22:14;;;;;;;;;27.20;24.80;;;;;;;;5292118;27;8793;-70
2023/01/18 11:25:04;;;;;;;;;33.20;32.00;;;;;;;;5292564;27;8790;-70
2023/01/18 11:27:35;;;;;;;;;24.40;22.40;;;;;;;;5310898;27;8904;-66
2023/01/18 11:30:17;;;;;;;;;28.80;25.40;;;;;;;;5275248;27;8892;-68
2023/01/18 11:32:49;;;;;;;;;71.00;57.00;;;;;;;;5291744;27;8763;-68
2023/01/18 11:35:40;;;;;;;;;31.00;31.00;;;;;;;;5291861;27;8786;-68
2023/01/18 11:38:18;;;;;;;;;33.60;32.20;;;;;;;;5275524;27;8770;-67
2023/01/18 11:41:22;;;;;;;;;33.80;31.80;;;;;;;;5295399;27;8784;-68
2023/01/18 11:44:12;;;;;;;;;34.80;30.80;;;;;;;;5292660;27;8804;-69
2023/01/18 11:46:45;;;;;;;;;39.80;38.00;;;;;;;;5292574;27;8770;-68
2023/01/18 11:49:36;;;;;;;;;24.40;21.00;;;;;;;;5292076;27;8824;-68
2023/01/18 11:52:45;;;;;;;;;29.40;29.20;;;;;;;;5296391;27;8793;-68
2023/01/18 11:55:30;;;;;;;;;34.80;34.00;;;;;;;;5296446;27;8750;-67
2023/01/18 11:58:04;;;;;;;;;41.80;36.20;;;;;;;;5317192;27;8773;-68
2023/01/18 12:01:02;;;;;;;;;32.00;30.60;;;;;;;;5283593;27;8758;-67
2023/01/18 12:04:11;;;;;;;;;37.60;27.80;;;;;;;;5293563;27;8826;-68
2023/01/18 12:06:42;;;;;;;;;33.60;32.40;;;;;;;;5279999;27;8955;-68
2023/01/18 12:09:43;;;;;;;;;44.80;44.20;;;;;;;;5292456;27;8880;-66
2023/01/18 12:12:14;;;;;;;;;48.00;45.00;;;;;;;;5260995;27;9584;-67
2023/01/18 12:15:08;;;;;;;;;41.40;36.80;;;;;;;;5291436;27;8819;-69
2023/01/18 12:17:58;;;;;;;;;37.00;35.00;;;;;;;;5263215;27;8825;-68
2023/01/18 12:20:48;;;;;;;;;32.60;30.20;;;;;;;;5274096;27;8783;-67
2023/01/18 12:23:37;;;;;;;;;48.60;43.80;;;;;;;;5291781;27;8755;-67
2023/01/18 12:26:32;;;;;;;;;25.40;20.20;;;;;;;;5309336;27;8812;-68
2023/01/18 12:33:48;;;;;;;;;28.80;27.40;;;;;;;;5309323;27;8707;-68
2023/01/18 12:36:23;;;;;;;;;34.40;29.60;;;;;;;;5291723;27;8778;-69
2023/01/18 12:39:34;;;;;;;;;28.40;27.80;;;;;;;;5279133;27;8893;-69
2023/01/18 12:42:12;;;;;;;;;38.60;37.20;;;;;;;;5258802;27;8771;-69
2023/01/18 12:44:44;;;;;;;;;27.00;26.60;;;;;;;;5258569;27;8842;-67
2023/01/18 12:47:34;;;;;;;;;35.00;33.60;;;;;;;;5310328;27;8859;-68
2023/01/18 12:50:20;;;;;;;;;26.60;26.20;;;;;;;;5274217;27;8782;-68
2023/01/18 12:53:16;;;;;;;;;28.80;27.80;;;;;;;;5310156;27;8888;-67
2023/01/18 12:55:49;;;;;;;;;33.80;32.60;;;;;;;;5291534;27;8778;-66
2023/01/18 12:58:23;;;;;;;;;16.80;16.20;;;;;;;;5274290;27;8867;-68
2023/01/18 13:01:01;;;;;;;;;30.60;24.80;;;;;;;;5274212;27;8770;-67
2023/01/18 13:03:42;;;;;;;;;26.20;23.60;;;;;;;;5257192;27;8785;-68
2023/01/18 13:06:13;;;;;;;;;21.80;19.60;;;;;;;;5257159;27;8877;-68
2023/01/18 13:08:51;;;;;;;;;18.80;16.80;;;;;;;;5290748;27;8762;-68
2023/01/18 13:11:33;;;;;;;;;25.00;23.60;;;;;;;;5273876;27;8831;-66
2023/01/18 13:14:18;;;;;;;;;23.00;23.00;;;;;;;;5291008;27;9487;-67
2023/01/18 13:17:07;;;;;;;;;26.00;21.40;;;;;;;;5293827;27;8794;-68
2023/01/18 13:20:01;;;;;;;;;55.60;47.00;;;;;;;;5294650;27;8785;-67
2023/01/18 13:22:52;;;;;;;;;58.20;49.00;;;;;;;;5294786;27;8782;-67
2023/01/18 13:25:31;;;;;;;;;68.60;58.20;;;;;;;;5294554;27;8794;-67
2023/01/18 13:28:04;;;;;;;;;69.20;53.80;;;;;;;;5294195;27;8774;-67
2023/01/18 13:30:45;;;;;;;;;85.50;67.50;;;;;;;;5294951;27;9465;-66
2023/01/18 13:33:21;;;;;;;;;74.80;59.80;;;;;;;;5294230;27;8794;-67
2023/01/18 13:35:52;;;;;;;;;68.40;52.60;;;;;;;;5295215;27;8829;-67
2023/01/18 13:38:25;;;;;;;;;53.80;47.40;;;;;;;;5277118;27;8767;-67
2023/01/18 13:41:01;;;;;;;;;55.80;49.40;;;;;;;;5277566;27;8790;-66
2023/01/18 13:43:35;;;;;;;;;41.20;37.40;;;;;;;;5294202;27;8770;-67
2023/01/18 13:46:06;;;;;;;;;37.80;30.60;;;;;;;;5293688;27;8801;-68
2023/01/18 13:49:19;;;;;;;;;50.20;46.40;;;;;;;;5294125;27;9033;-67
2023/01/18 13:51:51;;;;;;;;;30.80;28.80;;;;;;;;5294187;27;8786;-66
2023/01/18 13:54:22;;;;;;;;;69.20;48.20;;;;;;;;5294047;27;8794;-68
2023/01/18 13:57:08;;;;;;;;;29.80;28.80;;;;;;;;5276571;27;8806;-66
2023/01/18 13:59:43;;;;;;;;;38.60;34.20;;;;;;;;5312287;27;8872;-67
2023/01/18 14:02:40;;;;;;;;;36.00;32.60;;;;;;;;5278095;27;8782;-65
2023/01/18 14:05:14;;;;;;;;;40.80;37.80;;;;;;;;5312598;27;8766;-65
2023/01/18 14:07:47;;;;;;;;;47.20;45.20;;;;;;;;5276881;27;8771;-66
2023/01/18 14:10:21;;;;;;;;;43.60;38.20;;;;;;;;5311533;27;8844;-66
2023/01/18 14:12:54;;;;;;;;;35.60;35.00;;;;;;;;5294477;27;8790;-66
2023/01/18 14:15:45;;;;;;;;;38.00;32.20;;;;;;;;5259666;27;8837;-66
2023/01/18 14:18:34;;;;;;;;;46.20;39.40;;;;;;;;5311484;27;8835;-66
2023/01/18 14:21:17;;;;;;;;;45.25;39.25;;;;;;;;5293430;27;8782;-65
2023/01/18 14:24:05;;;;;;;;;44.80;38.20;;;;;;;;5293195;27;8762;-67
2023/01/18 14:26:39;;;;;;;;;42.00;39.00;;;;;;;;5276362;27;8802;-66
2023/01/18 14:33:38;;;;;;;;;44.20;42.80;;;;;;;;5310947;27;8694;-66
2023/01/18 14:36:18;;;;;;;;;13.20;13.20;;;;;;;;5327588;27;9458;-69
2023/01/18 14:43:35;;;;;;;;;34.20;34.00;;;;;;;;5332556;27;8688;-66
2023/01/18 14:46:14;;;;;;;;;52.00;48.40;;;;;;;;5332792;27;8784;-66
2023/01/18 14:48:53;;;;;;;;;35.00;31.20;;;;;;;;5265120;27;8796;-66
2023/01/18 14:51:26;;;;;;;;;74.00;59.80;;;;;;;;5293611;27;8783;-68
2023/01/18 14:53:59;;;;;;;;;36.20;32.40;;;;;;;;5309664;27;8788;-68
2023/01/18 15:00:53;;;;;;;;;36.40;33.20;;;;;;;;5310709;27;8839;-67
2023/01/18 15:03:42;;;;;;;;;37.40;30.20;;;;;;;;5293236;27;8811;-68
2023/01/18 15:15:20;;;;;;;;;28.00;28.00;;;;;;;;5310230;27;8729;-69
2023/01/18 15:18:15;;;;;;;;;36.80;34.80;;;;;;;;5310515;27;8772;-66
2023/01/18 15:21:03;;;;;;;;;23.80;22.40;;;;;;;;5292782;27;8903;-67
2023/01/18 15:23:35;;;;;;;;;42.80;41.20;;;;;;;;5292374;27;8752;-66
2023/01/18 15:26:06;;;;;;;;;39.60;37.40;;;;;;;;5292000;27;8799;-67
2023/01/18 15:28:39;;;;;;;;;33.50;33.25;;;;;;;;5292784;27;8796;-66
2023/01/18 15:31:28;;;;;;;;;30.60;29.20;;;;;;;;5278621;27;8849;-67
2023/01/18 15:34:19;;;;;;;;;40.00;34.20;;;;;;;;5292323;27;8796;-68
2023/01/18 15:37:14;;;;;;;;;45.60;43.80;;;;;;;;5277982;27;8811;-66
2023/01/18 15:39:58;;;;;;;;;43.00;40.40;;;;;;;;5292488;27;8780;-67
2023/01/18 15:42:37;;;;;;;;;31.40;30.40;;;;;;;;5257514;27;8792;-68
2023/01/18 15:45:27;;;;;;;;;39.60;36.40;;;;;;;;5277861;27;8796;-66
2023/01/18 15:48:05;;;;;;;;;37.40;35.60;;;;;;;;5283139;27;8866;-66
2023/01/18 15:50:55;;;;;;;;;31.20;29.40;;;;;;;;5298963;27;8774;-67
2023/01/18 15:53:31;;;;;;;;;33.60;32.20;;;;;;;;5331532;27;8792;-67
2023/01/18 15:56:25;;;;;;;;;30.80;29.60;;;;;;;;5331871;27;8773;-68
2023/01/18 15:59:19;;;;;;;;;28.40;28.00;;;;;;;;5313167;27;8758;-67
2023/01/18 16:02:08;;;;;;;;;32.20;31.00;;;;;;;;5295834;27;8754;-67
2023/01/18 16:04:39;;;;;;;;;33.00;31.40;;;;;;;;5295866;27;8757;-67
2023/01/18 16:07:23;;;;;;;;;23.00;22.00;;;;;;;;5313197;27;8765;-67
2023/01/18 16:10:08;;;;;;;;;25.80;23.20;;;;;;;;5312552;27;8750;-67
2023/01/18 16:12:39;;;;;;;;;29.60;27.60;;;;;;;;5312975;27;8761;-67
2023/01/18 16:15:26;;;;;;;;;29.80;29.20;;;;;;;;5296042;27;8769;-67
2023/01/18 16:18:00;;;;;;;;;33.80;33.00;;;;;;;;5331241;27;8838;-67
2023/01/18 16:20:50;;;;;;;;;28.80;28.40;;;;;;;;5330909;27;8754;-67
2023/01/18 16:23:20;;;;;;;;;29.50;29.00;;;;;;;;5313223;27;8838;-67
2023/01/18 16:26:02;;;;;;;;;29.00;27.75;;;;;;;;5330817;27;8774;-67
2023/01/18 16:28:33;;;;;;;;;29.80;27.60;;;;;;;;5295303;27;10975;-68
2023/01/18 16:31:04;;;;;;;;;21.20;21.20;;;;;;;;5278673;27;9520;-67
2023/01/18 16:33:54;;;;;;;;;24.60;24.40;;;;;;;;5298450;27;8866;-67
2023/01/18 16:36:25;;;;;;;;;21.40;20.40;;;;;;;;5278841;27;8923;-67
2023/01/18 16:38:56;;;;;;;;;25.75;21.25;;;;;;;;5295319;27;8813;-67
2023/01/18 16:41:26;;;;;;;;;20.25;17.50;;;;;;;;5330924;27;8965;-67
2023/01/18 16:44:02;;;;;;;;;27.50;25.00;;;;;;;;5295089;27;10996;-67
2023/01/18 16:46:34;;;;;;;;;33.00;32.00;;;;;;;;5295127;27;11391;-67
2023/01/18 16:49:11;;;;;;;;;30.40;30.40;;;;;;;;5312256;27;8825;-68
2023/01/18 16:51:42;;;;;;;;;32.20;27.40;;;;;;;;5278788;27;8811;-67
2023/01/18 16:54:13;;;;;;;;;18.50;16.00;;;;;;;;5334206;27;8758;-67